aviador You're here:

BKPR Decoded Metar

PRISHTINA in SERBIA
Report Time2017-06-25 06:30:00
UTC Time2017-06-25 06:57:10
Flight Rules vfr VFR
WindVRB at 01 kt
Visibility9999 m
Phenomena:N/A
Clouds:N/A
Expected CloudBase > 3,200 ft AGL from Temp-Dew spread
CeilingNone
Temp21°C (ISA +10)
Dew Point13°C (60% RH)
QNH1018 hPa
Density Alt3,064 ft
Elevation1,890 ft
Report Wrong Elevation
Raw Report
BKPR 250630Z VRB01KT CAVOK 21/13 Q1018 NOSIG=

Extra information for BKPR:More info

Metar Taf Metar & Taf Last 4 Metars F.Rules Stats Wind Profile Meteogram Temp Stats Airport Information Weather charts Add Link Nearby VenuesMetar ALERT Operation Metar Decoded Social comments